createdAt,value
2023-03-05T00:00:11.938Z,3.36
2023-03-05T00:01:14.145Z,3.26
2023-03-05T00:02:11.883Z,3.27
2023-03-05T00:03:12.010Z,3.27
2023-03-05T00:04:11.908Z,3.18
2023-03-05T00:05:11.678Z,3.31
2023-03-05T00:06:11.769Z,3.09
2023-03-05T00:07:11.579Z,3.26
2023-03-05T00:08:13.781Z,3.29
2023-03-05T00:09:11.510Z,3.19
2023-03-05T00:10:11.436Z,3.15
2023-03-05T00:11:11.776Z,3.18
2023-03-05T00:12:11.340Z,3.19
2023-03-05T00:13:12.487Z,3.09
2023-03-05T00:14:11.238Z,3.15
2023-03-05T00:15:11.274Z,3.15
2023-03-05T00:16:11.243Z,3.13
2023-03-05T00:17:12.309Z,3.11
2023-03-05T00:18:11.045Z,3.09
2023-03-05T00:19:11.112Z,3.01
2023-03-05T00:20:10.950Z,3.05
2023-03-05T00:21:10.901Z,3.01
2023-03-05T00:22:11.067Z,3.11
2023-03-05T00:23:11.034Z,3.16
2023-03-05T00:24:10.762Z,3.06
2023-03-05T00:25:11.956Z,3.08
2023-03-05T00:26:10.661Z,3.09
2023-03-05T00:27:10.604Z,3.15
2023-03-05T00:28:10.600Z,2.95
2023-03-05T00:29:10.726Z,3.08
2023-03-05T00:30:10.470Z,3.01
2023-03-05T00:31:10.621Z,2.98
2023-03-05T00:32:10.403Z,3.08
2023-03-05T00:33:10.477Z,3.08
2023-03-05T00:34:12.583Z,3.05
2023-03-05T00:35:10.290Z,3.15
2023-03-05T00:36:10.178Z,3.06
2023-03-05T00:37:11.244Z,3.13
2023-03-05T00:38:11.241Z,3.09
2023-03-05T00:39:10.048Z,3.01
2023-03-05T00:40:10.252Z,3.06
2023-03-05T00:41:09.934Z,3.05
2023-03-05T00:42:12.078Z,2.98
2023-03-05T00:43:09.841Z,3.06
2023-03-05T00:44:09.808Z,3.09
2023-03-05T00:45:10.984Z,3.03
2023-03-05T00:46:09.882Z,3.06
2023-03-05T00:47:09.724Z,3.06
2023-03-05T00:48:09.592Z,3.05
2023-03-05T00:49:09.559Z,3.18
2023-03-05T00:50:09.497Z,3.16
2023-03-05T00:51:30.699Z,3.12
2023-03-05T00:52:09.400Z,3.08
2023-03-05T00:53:09.506Z,3.12
2023-03-05T00:54:09.311Z,3.12
2023-03-05T00:55:09.256Z,2.95
2023-03-05T00:56:09.214Z,3.06
2023-03-05T00:57:30.623Z,2.97
2023-03-05T00:58:09.130Z,2.97
2023-03-05T00:59:09.139Z,2.98
2023-03-05T01:00:09.018Z,3.01
2023-03-05T01:01:08.968Z,2.87
2023-03-05T01:02:09.216Z,2.90
2023-03-05T01:03:08.889Z,2.85
2023-03-05T01:04:08.959Z,2.91
2023-03-05T01:05:08.796Z,2.82
2023-03-05T01:06:08.733Z,2.85
2023-03-05T01:07:08.661Z,2.77
2023-03-05T01:08:32.031Z,2.85
2023-03-05T01:09:08.565Z,2.82
2023-03-05T01:10:08.515Z,2.82
2023-03-05T01:11:08.699Z,2.88
2023-03-05T01:12:08.412Z,2.95
2023-03-05T01:13:08.503Z,2.94
2023-03-05T01:14:08.338Z,2.98
2023-03-05T01:15:08.514Z,3.00
2023-03-05T01:16:08.265Z,3.09
2023-03-05T01:17:08.279Z,3.12
2023-03-05T01:18:08.117Z,3.15
2023-03-05T01:19:09.262Z,3.19
2023-03-05T01:20:09.273Z,3.19
2023-03-05T01:21:08.052Z,3.19
2023-03-05T01:22:07.922Z,3.29
2023-03-05T01:23:07.877Z,3.31
2023-03-05T01:24:07.828Z,3.33
2023-03-05T01:25:07.863Z,3.45
2023-03-05T01:26:07.747Z,3.52
2023-03-05T01:27:07.887Z,3.50
2023-03-05T01:28:07.630Z,3.55
2023-03-05T01:29:07.586Z,3.67
2023-03-05T01:30:07.696Z,3.66
2023-03-05T01:31:07.529Z,3.82
2023-03-05T01:32:10.000Z,3.77
2023-03-05T01:33:07.390Z,3.88
2023-03-05T01:34:07.350Z,3.88
2023-03-05T01:35:07.303Z,3.92
2023-03-05T01:36:07.334Z,3.88
2023-03-05T01:37:07.197Z,3.94
2023-03-05T01:38:07.349Z,3.86
2023-03-05T01:39:07.108Z,3.99
2023-03-05T01:40:07.055Z,3.95
2023-03-05T01:41:07.018Z,3.95
2023-03-05T01:42:07.115Z,4.02
2023-03-05T01:43:06.927Z,4.07
2023-03-05T01:44:07.128Z,4.16
2023-03-05T01:45:06.815Z,4.25
2023-03-05T01:46:06.807Z,4.24
2023-03-05T01:47:06.718Z,4.20
2023-03-05T01:48:06.755Z,4.24
2023-03-05T01:49:06.626Z,4.34
2023-03-05T01:50:06.768Z,4.43
2023-03-05T01:51:06.532Z,4.43
2023-03-05T01:52:06.680Z,4.52
2023-03-05T01:53:06.440Z,4.52
2023-03-05T01:54:07.573Z,4.50
2023-03-05T01:55:06.336Z,4.57
2023-03-05T01:56:07.525Z,4.67
2023-03-05T01:57:06.357Z,4.61
2023-03-05T01:58:06.195Z,4.66
2023-03-05T01:59:06.374Z,4.64
2023-03-05T02:00:06.108Z,4.74
2023-03-05T02:01:06.222Z,4.78
2023-03-05T02:02:06.033Z,4.78
2023-03-05T02:03:05.956Z,4.83
2023-03-05T02:04:05.999Z,4.78
2023-03-05T02:05:05.859Z,4.78
2023-03-05T02:06:28.137Z,4.78
2023-03-05T02:07:05.764Z,4.82
2023-03-05T02:08:05.721Z,4.86
2023-03-05T02:09:05.673Z,4.79
2023-03-05T02:10:06.803Z,4.79
2023-03-05T02:11:05.571Z,4.89
2023-03-05T02:12:05.646Z,4.82
2023-03-05T02:13:05.478Z,4.89
2023-03-05T02:14:05.437Z,4.89
2023-03-05T02:15:05.382Z,4.90
2023-03-05T02:16:05.685Z,5.04
2023-03-05T02:17:05.297Z,4.98
2023-03-05T02:18:05.648Z,5.07
2023-03-05T02:19:05.203Z,5.04
2023-03-05T02:20:05.150Z,5.12
2023-03-05T02:21:05.308Z,5.22
2023-03-05T02:22:05.056Z,5.18
2023-03-05T02:23:07.166Z,5.16
2023-03-05T02:24:04.984Z,5.20
2023-03-05T02:25:04.918Z,5.23
2023-03-05T02:26:04.866Z,5.16
2023-03-05T02:27:04.955Z,5.31
2023-03-05T02:28:04.769Z,5.29
2023-03-05T02:29:04.960Z,5.28
2023-03-05T02:30:05.042Z,5.28
2023-03-05T02:31:04.626Z,5.33
2023-03-05T02:32:04.732Z,5.33
2023-03-05T02:33:04.541Z,5.36
2023-03-05T02:34:04.687Z,5.36
2023-03-05T02:35:04.448Z,5.38
2023-03-05T02:36:04.703Z,5.40
2023-03-05T02:37:04.341Z,5.31
2023-03-05T02:38:04.507Z,5.40
2023-03-05T02:39:04.262Z,5.31
2023-03-05T02:40:04.318Z,5.37
2023-03-05T02:41:04.169Z,5.38
2023-03-05T02:42:04.386Z,5.34
2023-03-05T02:43:04.058Z,5.34
2023-03-05T02:44:04.147Z,5.31
2023-03-05T02:45:03.964Z,5.33
2023-03-05T02:46:04.135Z,5.33
2023-03-05T02:47:03.871Z,5.34
2023-03-05T02:48:03.822Z,5.31
2023-03-05T02:49:03.976Z,5.36
2023-03-05T02:50:04.858Z,5.40
2023-03-05T02:51:03.791Z,5.33
2023-03-05T02:52:03.627Z,5.41
2023-03-05T02:53:03.613Z,5.40
2023-03-05T02:54:03.541Z,5.37
2023-03-05T02:55:03.614Z,5.41
2023-03-05T02:56:03.443Z,5.40
2023-03-05T02:57:03.624Z,5.43
2023-03-05T02:58:03.348Z,5.44
2023-03-05T02:59:05.537Z,5.52
2023-03-05T03:00:03.396Z,5.46
2023-03-05T03:01:03.341Z,5.51
2023-03-05T03:02:03.158Z,5.58
2023-03-05T03:03:03.284Z,5.51
2023-03-05T03:04:03.066Z,5.49
2023-03-05T03:05:03.024Z,5.59
2023-03-05T03:06:04.310Z,5.62
2023-03-05T03:07:02.920Z,5.54
2023-03-05T03:08:04.119Z,5.54
2023-03-05T03:09:02.828Z,5.61
2023-03-05T03:10:02.778Z,5.64
2023-03-05T03:11:02.742Z,5.58
2023-03-05T03:12:03.943Z,5.64
2023-03-05T03:13:02.641Z,5.64
2023-03-05T03:14:02.728Z,5.67
2023-03-05T03:15:02.545Z,5.67
2023-03-05T03:16:02.500Z,5.70
2023-03-05T03:17:02.593Z,5.76
2023-03-05T03:18:04.761Z,5.77
2023-03-05T03:19:02.458Z,5.79
2023-03-05T03:20:02.309Z,5.70
2023-03-05T03:21:02.475Z,5.74
2023-03-05T03:22:02.214Z,5.69
2023-03-05T03:23:03.349Z,5.64
2023-03-05T03:24:02.233Z,5.58
2023-03-05T03:25:02.307Z,5.72
2023-03-05T03:26:02.031Z,5.64
2023-03-05T03:27:02.008Z,5.65
2023-03-05T03:28:01.949Z,5.61
2023-03-05T03:29:02.155Z,5.62
2023-03-05T03:30:03.228Z,5.62
2023-03-05T03:31:02.009Z,5.64
2023-03-05T03:32:01.817Z,5.65
2023-03-05T03:33:01.892Z,5.69
2023-03-05T03:34:03.905Z,5.69
2023-03-05T03:35:01.603Z,5.74
2023-03-05T03:36:01.664Z,5.77
2023-03-05T03:37:01.505Z,5.64
2023-03-05T03:38:01.460Z,5.67
2023-03-05T03:39:01.537Z,5.61
2023-03-05T03:40:02.522Z,5.64
2023-03-05T03:41:01.323Z,5.65
2023-03-05T03:42:01.508Z,5.65
2023-03-05T03:43:01.228Z,5.67
2023-03-05T03:44:01.182Z,5.62
2023-03-05T03:45:02.523Z,5.69
2023-03-05T03:46:01.123Z,5.72
2023-03-05T03:47:02.182Z,5.74
2023-03-05T03:48:01.001Z,5.76
2023-03-05T03:49:01.156Z,5.77
2023-03-05T03:50:00.899Z,5.74
2023-03-05T03:51:01.083Z,5.73
2023-03-05T03:52:00.797Z,5.74
2023-03-05T03:53:00.975Z,5.81
2023-03-05T03:54:00.711Z,5.79
2023-03-05T03:55:00.667Z,5.76
2023-03-05T03:56:00.609Z,5.80
2023-03-05T03:57:00.804Z,5.80
2023-03-05T03:58:00.525Z,5.81
2023-03-05T03:59:02.657Z,5.80
2023-03-05T04:00:00.429Z,5.91
2023-03-05T04:01:00.381Z,5.88
2023-03-05T04:02:00.343Z,5.91
2023-03-05T04:03:00.401Z,5.91
2023-03-05T04:04:00.376Z,5.88
2023-03-05T04:05:00.190Z,5.90
2023-03-05T04:06:00.140Z,5.95
2023-03-05T04:07:00.100Z,5.95
2023-03-05T04:08:01.206Z,5.98
2023-03-05T04:09:00.016Z,5.97
2023-03-05T04:10:00.110Z,5.99
2023-03-05T04:10:59.908Z,6.07
2023-03-05T04:11:59.865Z,6.05
2023-03-05T04:12:59.813Z,6.01
2023-03-05T04:13:59.902Z,6.09
2023-03-05T04:15:00.987Z,6.06
2023-03-05T04:15:59.851Z,6.05
2023-03-05T04:16:59.624Z,5.97
2023-03-05T04:17:59.581Z,5.99
2023-03-05T04:19:00.654Z,5.98
2023-03-05T04:19:59.480Z,5.95
2023-03-05T04:21:01.697Z,5.83
2023-03-05T04:21:59.388Z,5.90
2023-03-05T04:22:59.348Z,5.88
2023-03-05T04:23:59.289Z,5.94
2023-03-05T04:25:00.408Z,5.84
2023-03-05T04:25:59.200Z,5.87
2023-03-05T04:26:59.425Z,5.79
2023-03-05T04:27:59.106Z,5.76
2023-03-05T04:28:59.058Z,5.76
2023-03-05T04:29:59.002Z,5.79
2023-03-05T04:30:59.283Z,5.80
2023-03-05T04:31:58.968Z,5.80
2023-03-05T04:32:59.220Z,5.83
2023-03-05T04:33:58.817Z,5.77
2023-03-05T04:34:58.772Z,5.83
2023-03-05T04:35:58.876Z,5.95
2023-03-05T04:36:58.671Z,5.80
2023-03-05T04:38:00.892Z,5.81
2023-03-05T04:38:58.809Z,5.91
2023-03-05T04:39:58.528Z,5.83
2023-03-05T04:40:58.484Z,5.92
2023-03-05T04:41:59.696Z,5.95
2023-03-05T04:42:58.395Z,5.87
2023-03-05T04:43:58.480Z,5.88
2023-03-05T04:44:58.320Z,5.94
2023-03-05T04:45:58.250Z,5.97
2023-03-05T04:46:58.215Z,5.94
2023-03-05T04:47:58.400Z,5.98
2023-03-05T04:48:58.114Z,5.97
2023-03-05T04:49:58.210Z,5.99
2023-03-05T04:50:58.270Z,5.99
2023-03-05T04:51:58.230Z,6.01
2023-03-05T04:52:57.912Z,6.01
2023-03-05T04:53:59.067Z,5.98
2023-03-05T04:54:57.820Z,6.05
2023-03-05T04:55:59.078Z,6.05
2023-03-05T04:56:57.755Z,6.05
2023-03-05T04:57:58.114Z,6.02
2023-03-05T04:58:57.870Z,6.05
2023-03-05T04:59:57.584Z,6.10
2023-03-05T05:00:57.684Z,5.98
2023-03-05T05:01:57.758Z,6.12
2023-03-05T05:02:57.493Z,6.17
2023-03-05T05:03:58.728Z,6.16
2023-03-05T05:04:57.358Z,6.06
2023-03-05T05:06:05.429Z,6.09
2023-03-05T05:06:58.556Z,6.19
2023-03-05T05:07:57.209Z,6.12
2023-03-05T05:08:57.349Z,6.12
2023-03-05T05:09:57.138Z,6.17
2023-03-05T05:10:58.342Z,6.25
2023-03-05T05:11:57.023Z,6.09
2023-03-05T05:12:57.056Z,6.19
2023-03-05T05:13:56.930Z,6.16
2023-03-05T05:14:57.168Z,6.12
2023-03-05T05:15:57.059Z,6.06
2023-03-05T05:17:18.893Z,6.12
2023-03-05T05:17:56.740Z,6.15
2023-03-05T05:18:56.995Z,6.12
2023-03-05T05:19:56.820Z,6.12
2023-03-05T05:20:57.825Z,6.15
2023-03-05T05:21:56.577Z,6.10
2023-03-05T05:22:56.824Z,6.15
2023-03-05T05:23:56.456Z,6.09
2023-03-05T05:24:56.410Z,6.15
2023-03-05T05:25:57.613Z,6.13
2023-03-05T05:26:56.439Z,6.12
2023-03-05T05:27:56.273Z,6.12
2023-03-05T05:28:56.352Z,6.12
2023-03-05T05:29:56.180Z,6.12
2023-03-05T05:30:56.132Z,6.10
2023-03-05T05:31:56.227Z,6.12
2023-03-05T05:32:56.193Z,6.07
2023-03-05T05:33:55.986Z,6.05
2023-03-05T05:34:56.186Z,6.02
2023-03-05T05:35:55.943Z,6.05
2023-03-05T05:36:55.912Z,6.10
2023-03-05T05:37:55.847Z,6.02
2023-03-05T05:38:56.014Z,6.05
2023-03-05T05:39:55.762Z,6.02
2023-03-05T05:40:55.752Z,6.02
2023-03-05T05:41:55.752Z,6.06
2023-03-05T05:42:55.600Z,6.07
2023-03-05T05:43:55.748Z,6.10
2023-03-05T05:44:55.511Z,6.17
2023-03-05T05:45:55.817Z,6.10
2023-03-05T05:46:55.377Z,6.16
2023-03-05T05:47:55.377Z,6.12
2023-03-05T05:48:55.589Z,6.17
2023-03-05T05:49:55.243Z,6.15
2023-03-05T05:50:55.388Z,6.13
2023-03-05T05:51:55.144Z,6.16
2023-03-05T05:52:55.100Z,6.19
2023-03-05T05:53:55.266Z,6.19
2023-03-05T05:54:55.216Z,6.12
2023-03-05T05:55:54.971Z,6.12
2023-03-05T05:56:55.128Z,6.01
2023-03-05T05:57:54.860Z,6.07
2023-03-05T05:58:54.816Z,6.10
2023-03-05T05:59:54.945Z,6.12
2023-03-05T06:03:46.888Z,5.95
2023-03-05T06:04:46.497Z,5.98
2023-03-05T06:05:47.511Z,5.91
2023-03-05T06:06:46.404Z,5.83
2023-03-05T06:07:46.521Z,5.83
2023-03-05T06:08:46.299Z,5.84
2023-03-05T06:09:46.274Z,5.70
2023-03-05T06:10:46.208Z,5.74
2023-03-05T06:11:46.348Z,5.81
2023-03-05T06:12:46.110Z,5.79
2023-03-05T06:13:46.142Z,5.81
2023-03-05T06:14:46.014Z,5.79
2023-03-05T06:15:46.201Z,5.84
2023-03-05T06:16:45.964Z,5.77
2023-03-05T06:17:45.965Z,5.81
2023-03-05T06:18:45.823Z,5.72
2023-03-05T06:19:45.978Z,5.80
2023-03-05T06:20:45.745Z,5.76
2023-03-05T06:21:45.699Z,5.84
2023-03-05T06:22:45.810Z,5.92
2023-03-05T06:23:45.592Z,5.74
2023-03-05T06:24:45.604Z,5.77
2023-03-05T06:25:45.492Z,5.81
2023-03-05T06:26:46.714Z,5.79
2023-03-05T06:27:45.392Z,5.87
2023-03-05T06:28:45.430Z,5.84
2023-03-05T06:29:45.312Z,5.94
2023-03-05T06:30:46.522Z,5.92
2023-03-05T06:31:45.225Z,5.97
2023-03-05T06:32:45.223Z,5.97
2023-03-05T06:33:45.113Z,6.05
2023-03-05T06:34:45.265Z,6.09
2023-03-05T06:35:45.045Z,6.12
2023-03-05T06:36:45.295Z,6.17
2023-03-05T06:37:44.936Z,6.13
2023-03-05T06:38:44.875Z,6.17
2023-03-05T06:39:44.895Z,6.15
2023-03-05T06:40:44.782Z,6.22
2023-03-05T06:41:44.810Z,6.26
2023-03-05T06:42:44.864Z,6.25
2023-03-05T06:43:44.669Z,6.28
2023-03-05T06:44:45.953Z,6.32
2023-03-05T06:45:44.672Z,6.34
2023-03-05T06:46:44.501Z,6.31
2023-03-05T06:47:44.856Z,6.39
2023-03-05T06:48:44.413Z,6.31
2023-03-05T06:49:44.363Z,6.28
2023-03-05T06:50:46.514Z,6.25
2023-03-05T06:51:44.268Z,6.28
2023-03-05T06:52:45.297Z,6.28
2023-03-05T06:53:44.193Z,6.31
2023-03-05T06:54:44.188Z,6.32
2023-03-05T06:55:44.076Z,6.35
2023-03-05T06:56:44.227Z,6.43
2023-03-05T06:57:43.987Z,6.32
2023-03-05T06:58:44.116Z,6.46
2023-03-05T06:59:44.021Z,6.41
2023-03-05T07:00:43.854Z,6.47
2023-03-05T07:01:43.799Z,6.59
2023-03-05T07:02:43.997Z,6.53
2023-03-05T07:03:43.697Z,6.56
2023-03-05T07:04:43.728Z,6.70
2023-03-05T07:05:43.635Z,6.67
2023-03-05T07:06:43.817Z,6.72
2023-03-05T07:07:43.570Z,6.71
2023-03-05T07:08:43.468Z,6.77
2023-03-05T07:09:44.581Z,6.82
2023-03-05T07:10:43.371Z,6.89
2023-03-05T07:11:43.347Z,6.77
2023-03-05T07:12:43.668Z,6.83
2023-03-05T07:13:43.407Z,6.87
2023-03-05T07:14:43.194Z,6.90
2023-03-05T07:15:44.291Z,6.89
2023-03-05T07:16:43.115Z,6.87
2023-03-05T07:17:43.051Z,6.90
2023-03-05T07:18:43.142Z,6.89
2023-03-05T07:19:42.959Z,6.89
2023-03-05T07:20:42.945Z,6.93
2023-03-05T07:21:42.861Z,7.00
2023-03-05T07:22:44.035Z,7.05
2023-03-05T07:23:42.758Z,7.07
2023-03-05T07:24:42.768Z,7.10
2023-03-05T07:25:42.671Z,7.14
2023-03-05T07:26:42.787Z,7.26
2023-03-05T07:27:42.584Z,7.32
2023-03-05T07:28:42.563Z,7.31
2023-03-05T07:29:42.604Z,7.31
2023-03-05T07:30:42.452Z,7.41
2023-03-05T07:31:42.619Z,7.43
2023-03-05T07:32:42.356Z,7.40
2023-03-05T07:33:42.436Z,7.48
2023-03-05T07:34:42.377Z,7.59
2023-03-05T07:35:43.407Z,7.66
2023-03-05T07:36:42.172Z,7.77
2023-03-05T07:37:42.355Z,7.81
2023-03-05T07:38:42.085Z,7.85
2023-03-05T07:39:42.023Z,7.90
2023-03-05T07:40:42.170Z,7.95
2023-03-05T07:41:41.928Z,7.93
2023-03-05T07:42:42.026Z,7.98
2023-03-05T07:43:41.835Z,7.91
2023-03-05T07:44:42.050Z,7.91
2023-03-05T07:45:41.753Z,7.95
2023-03-05T07:46:42.125Z,7.90
2023-03-05T07:47:41.658Z,8.08
2023-03-05T07:48:41.831Z,7.99
2023-03-05T07:49:41.614Z,7.88
2023-03-05T07:50:41.518Z,7.93
2023-03-05T07:51:41.467Z,7.91
2023-03-05T07:52:41.641Z,7.96
2023-03-05T07:53:41.378Z,8.03
2023-03-05T07:54:41.465Z,8.01
2023-03-05T07:55:41.292Z,8.02
2023-03-05T07:56:41.236Z,7.96
2023-03-05T07:57:41.278Z,8.05
2023-03-05T07:58:41.336Z,8.05
2023-03-05T07:59:42.313Z,8.17
2023-03-05T08:00:41.070Z,8.16
2023-03-05T08:01:41.030Z,8.20
2023-03-05T08:02:41.005Z,8.26
2023-03-05T08:03:41.129Z,8.21
2023-03-05T08:04:40.880Z,8.23
2023-03-05T08:05:40.927Z,8.27
2023-03-05T08:06:40.781Z,8.24
2023-03-05T08:07:40.769Z,8.27
2023-03-05T08:08:42.940Z,8.42
2023-03-05T08:09:40.846Z,8.42
2023-03-05T08:10:40.593Z,8.38
2023-03-05T08:11:42.702Z,8.54
2023-03-05T08:12:40.511Z,8.56
2023-03-05T08:13:40.613Z,8.52
2023-03-05T08:14:48.227Z,8.64
2023-03-05T08:15:40.663Z,8.59
2023-03-05T08:16:40.315Z,8.63
2023-03-05T08:17:40.602Z,8.59
2023-03-05T08:18:41.333Z,8.63
2023-03-05T08:19:48.321Z,8.74
2023-03-05T08:20:40.321Z,8.77
2023-03-05T08:21:40.100Z,8.86
2023-03-05T08:22:40.327Z,8.87
2023-03-05T08:23:40.006Z,8.97
2023-03-05T08:24:39.960Z,9.08
2023-03-05T08:25:39.922Z,9.02
2023-03-05T08:26:39.943Z,9.11
2023-03-05T08:27:39.820Z,9.09
2023-03-05T08:29:01.261Z,9.19
2023-03-05T08:29:39.729Z,8.99
2023-03-05T08:30:39.683Z,9.05
2023-03-05T08:31:39.830Z,9.00
2023-03-05T08:32:39.610Z,9.03
2023-03-05T08:33:39.795Z,9.18
2023-03-05T08:34:39.517Z,9.21
2023-03-05T08:35:39.467Z,9.09
2023-03-05T08:36:39.417Z,9.21
2023-03-05T08:37:39.617Z,9.15
2023-03-05T08:38:39.321Z,9.24
2023-03-05T08:39:40.658Z,9.24
2023-03-05T08:40:39.226Z,9.27
2023-03-05T08:41:39.217Z,9.37
2023-03-05T08:42:39.250Z,9.33
2023-03-05T08:43:39.095Z,9.33
2023-03-05T08:44:39.164Z,9.22
2023-03-05T08:45:39.326Z,9.31
2023-03-05T08:46:39.247Z,9.42
2023-03-05T08:47:38.913Z,9.33
2023-03-05T08:48:38.985Z,9.48
2023-03-05T08:49:38.819Z,9.52
2023-03-05T08:50:39.129Z,9.59
2023-03-05T08:51:38.800Z,9.87
2023-03-05T08:52:38.687Z,9.92
2023-03-05T08:53:38.657Z,9.87
2023-03-05T08:54:38.727Z,9.84
2023-03-05T08:55:38.552Z,9.95
2023-03-05T08:56:38.951Z,9.92
2023-03-05T08:57:38.455Z,10.05
2023-03-05T08:58:38.426Z,10.07
2023-03-05T08:59:38.573Z,10.13
2023-03-05T09:00:38.330Z,10.21
2023-03-05T09:01:38.407Z,10.24
2023-03-05T09:02:38.345Z,10.28
2023-03-05T09:03:38.226Z,10.41
2023-03-05T09:04:38.141Z,10.42
2023-03-05T09:05:40.353Z,10.57
2023-03-05T09:06:38.061Z,10.49
2023-03-05T09:07:38.103Z,10.65
2023-03-05T09:08:39.189Z,10.61
2023-03-05T09:09:37.925Z,10.62
2023-03-05T09:10:37.876Z,10.65
2023-03-05T09:11:38.953Z,10.67
2023-03-05T09:12:37.820Z,10.68
2023-03-05T09:13:37.838Z,10.76
2023-03-05T09:14:37.725Z,10.79
2023-03-05T09:15:37.653Z,10.82
2023-03-05T09:16:37.655Z,10.87
2023-03-05T09:17:38.688Z,10.89
2023-03-05T09:18:37.531Z,10.87
2023-03-05T09:19:37.680Z,11.01
2023-03-05T09:20:37.529Z,11.10
2023-03-05T09:21:37.405Z,11.08
2023-03-05T09:22:37.509Z,11.16
2023-03-05T09:23:37.298Z,11.30
2023-03-05T09:24:37.514Z,11.25
2023-03-05T09:25:39.616Z,11.37
2023-03-05T09:26:37.175Z,11.43
2023-03-05T09:27:37.120Z,11.48
2023-03-05T09:28:37.331Z,11.51
2023-03-05T09:29:37.045Z,11.59
2023-03-05T09:30:37.142Z,11.59
2023-03-05T09:31:36.998Z,11.63
2023-03-05T09:32:36.938Z,11.68
2023-03-05T09:33:36.861Z,11.74
2023-03-05T09:34:38.398Z,11.88
2023-03-05T09:35:36.823Z,11.89
2023-03-05T09:36:36.983Z,11.93
2023-03-05T09:37:36.694Z,12.00
2023-03-05T09:38:36.635Z,11.97
2023-03-05T09:39:36.594Z,11.96
2023-03-05T09:40:37.626Z,12.00
2023-03-05T09:41:36.658Z,12.03
2023-03-05T09:42:36.717Z,12.00
2023-03-05T09:43:36.413Z,12.00
2023-03-05T09:44:36.371Z,12.07
2023-03-05T09:45:36.544Z,12.12
2023-03-05T09:46:36.307Z,12.12
2023-03-05T09:47:36.346Z,12.07
2023-03-05T09:48:36.194Z,12.10
2023-03-05T09:49:36.151Z,12.11
2023-03-05T09:50:36.114Z,12.08
2023-03-05T09:51:37.203Z,12.21
2023-03-05T09:52:37.458Z,12.29
2023-03-05T09:53:36.186Z,12.33
2023-03-05T09:54:35.938Z,12.33
2023-03-05T09:55:35.895Z,12.35
2023-03-05T09:56:36.924Z,12.29
2023-03-05T09:57:35.804Z,12.35
2023-03-05T09:58:35.916Z,12.36
2023-03-05T09:59:36.039Z,12.17
2023-03-05T10:00:35.954Z,12.23
2023-03-05T10:01:35.635Z,12.18
2023-03-05T10:02:35.737Z,12.32
2023-03-05T10:03:35.598Z,12.32
2023-03-05T10:04:35.753Z,12.48
2023-03-05T10:05:35.473Z,12.44
2023-03-05T10:06:35.416Z,12.50
2023-03-05T10:07:35.371Z,12.61
2023-03-05T10:08:37.419Z,12.63
2023-03-05T10:09:36.926Z,12.63
2023-03-05T10:10:35.593Z,12.63
2023-03-05T10:11:35.197Z,12.37
2023-03-05T10:12:35.176Z,12.40
2023-03-05T10:13:35.382Z,12.53
2023-03-05T10:14:35.068Z,12.61
2023-03-05T10:15:35.122Z,12.68
2023-03-05T10:16:35.041Z,12.66
2023-03-05T10:17:34.939Z,12.80
2023-03-05T10:18:34.915Z,12.78
2023-03-05T10:19:34.941Z,12.75
2023-03-05T10:20:34.814Z,12.80
2023-03-05T10:21:35.989Z,12.83
2023-03-05T10:22:35.023Z,12.88
2023-03-05T10:23:34.688Z,12.94
2023-03-05T10:24:34.777Z,12.93
2023-03-05T10:25:34.607Z,12.91
2023-03-05T10:26:55.745Z,12.94
2023-03-05T10:27:34.536Z,12.90
2023-03-05T10:28:35.641Z,12.95
2023-03-05T10:29:34.445Z,12.98
2023-03-05T10:30:34.615Z,13.08
2023-03-05T10:31:34.355Z,13.12
2023-03-05T10:32:34.545Z,13.12
2023-03-05T10:33:34.250Z,13.23
2023-03-05T10:34:34.796Z,13.23
2023-03-05T10:35:34.231Z,13.21
2023-03-05T10:36:34.252Z,13.36
2023-03-05T10:37:34.080Z,13.33
2023-03-05T10:38:34.268Z,13.36
2023-03-05T10:39:34.223Z,13.36
2023-03-05T10:40:34.176Z,13.46
2023-03-05T10:41:33.912Z,13.52
2023-03-05T10:42:33.988Z,13.62
2023-03-05T10:43:33.823Z,13.62
2023-03-05T10:44:34.003Z,13.61
2023-03-05T10:45:33.772Z,13.65
2023-03-05T10:46:34.840Z,13.64
2023-03-05T10:47:33.819Z,13.78
2023-03-05T10:48:33.608Z,13.87
2023-03-05T10:49:33.834Z,13.98
2023-03-05T10:50:33.522Z,14.05
2023-03-05T10:51:33.522Z,14.33
2023-03-05T10:52:33.649Z,14.45
2023-03-05T10:53:33.842Z,14.56
2023-03-05T10:54:33.352Z,14.61
2023-03-05T10:55:33.470Z,14.70
2023-03-05T10:56:33.526Z,14.78
2023-03-05T10:57:33.495Z,14.73
2023-03-05T10:58:33.180Z,14.77
2023-03-05T10:59:33.135Z,14.73
2023-03-05T11:00:34.337Z,14.79
2023-03-05T11:01:33.088Z,14.82
2023-03-05T11:02:35.376Z,14.89
2023-03-05T11:03:32.962Z,14.99
2023-03-05T11:04:34.146Z,14.89
2023-03-05T11:05:41.380Z,14.99
2023-03-05T11:06:32.844Z,14.97
2023-03-05T11:07:32.831Z,14.93
2023-03-05T11:08:32.748Z,14.90
2023-03-05T11:09:32.709Z,14.82
2023-03-05T11:10:32.693Z,14.87
2023-03-05T11:11:32.623Z,14.87
2023-03-05T11:12:32.581Z,14.90
2023-03-05T11:13:32.536Z,15.02
2023-03-05T11:14:32.517Z,15.19
2023-03-05T11:15:32.461Z,15.26
2023-03-05T11:16:32.420Z,15.36
2023-03-05T11:17:32.369Z,15.43
2023-03-05T11:18:32.330Z,15.57
2023-03-05T11:19:32.281Z,15.69
2023-03-05T11:20:32.265Z,15.73
2023-03-05T11:21:32.201Z,15.84
2023-03-05T11:22:32.161Z,15.94
2023-03-05T11:23:32.119Z,16.03
2023-03-05T11:24:32.075Z,16.10
2023-03-05T11:25:32.040Z,16.31
2023-03-05T11:26:32.003Z,16.39
2023-03-05T11:27:31.960Z,16.58
2023-03-05T11:28:33.671Z,16.66
2023-03-05T11:29:31.882Z,16.68
2023-03-05T11:30:31.998Z,16.73
2023-03-05T11:31:31.804Z,16.77
2023-03-05T11:32:31.800Z,16.82
2023-03-05T11:33:31.709Z,16.74
2023-03-05T11:34:31.669Z,16.58
2023-03-05T11:35:31.655Z,16.34
2023-03-05T11:36:31.585Z,16.25
2023-03-05T11:37:31.578Z,15.90
2023-03-05T11:38:33.003Z,15.85
2023-03-05T11:39:31.464Z,15.75
2023-03-05T11:40:32.377Z,15.73
2023-03-05T11:41:31.389Z,15.73
2023-03-05T11:42:31.340Z,15.73
2023-03-05T11:43:31.342Z,15.92
2023-03-05T11:44:31.268Z,16.50
2023-03-05T11:45:31.212Z,16.97
2023-03-05T11:46:31.230Z,17.56
2023-03-05T11:47:31.133Z,18.12
2023-03-05T11:48:31.096Z,18.70
2023-03-05T11:49:31.683Z,19.05
2023-03-05T11:50:31.079Z,19.39
2023-03-05T11:51:30.979Z,19.81
2023-03-05T11:52:30.955Z,20.02
2023-03-05T11:53:30.901Z,20.36
2023-03-05T11:54:30.863Z,20.71
2023-03-05T11:55:30.836Z,20.86
2023-03-05T11:56:30.801Z,20.90
2023-03-05T11:57:30.751Z,21.08
2023-03-05T11:58:30.718Z,21.25
2023-03-05T11:59:30.702Z,21.60
2023-03-05T12:00:30.640Z,21.85
2023-03-05T12:01:30.605Z,22.23
2023-03-05T12:02:30.619Z,22.41
2023-03-05T12:03:30.579Z,22.44
2023-03-05T12:04:30.498Z,22.41
2023-03-05T12:05:30.474Z,22.22
2023-03-05T12:06:30.431Z,22.15
2023-03-05T12:07:30.404Z,21.89
2023-03-05T12:08:30.353Z,22.31
2023-03-05T12:09:30.328Z,22.38
2023-03-05T12:10:30.297Z,22.73
2023-03-05T12:11:30.289Z,22.52
2023-03-05T12:12:30.229Z,22.55
2023-03-05T12:13:30.177Z,22.47
2023-03-05T12:14:30.141Z,22.55
2023-03-05T12:15:30.108Z,23.04
2023-03-05T12:16:30.150Z,23.16
2023-03-05T12:17:30.039Z,22.93
2023-03-05T12:18:30.196Z,23.11
2023-03-05T12:19:29.976Z,23.21
2023-03-05T12:20:29.969Z,23.33
2023-03-05T12:21:29.916Z,23.58
2023-03-05T12:22:29.889Z,23.66
2023-03-05T12:23:29.881Z,23.74
2023-03-05T12:24:29.824Z,23.54
2023-03-05T12:25:29.765Z,23.88
2023-03-05T12:26:29.728Z,24.03
2023-03-05T12:27:29.707Z,24.01
2023-03-05T12:28:29.657Z,24.03
2023-03-05T12:29:29.729Z,24.09
2023-03-05T12:30:29.617Z,24.29
2023-03-05T12:31:29.579Z,24.47
2023-03-05T12:32:29.667Z,24.47
2023-03-05T12:33:29.490Z,24.81
2023-03-05T12:34:29.483Z,25.01
2023-03-05T12:35:29.451Z,25.26
2023-03-05T12:36:29.388Z,25.44
2023-03-05T12:37:29.356Z,25.56
2023-03-05T12:38:29.329Z,25.43
2023-03-05T12:39:29.300Z,25.70
2023-03-05T12:40:29.253Z,25.89
2023-03-05T12:41:29.452Z,26.24
2023-03-05T12:42:29.180Z,26.64
2023-03-05T12:43:29.165Z,26.97
2023-03-05T12:44:29.117Z,27.10
2023-03-05T12:45:29.104Z,27.23
2023-03-05T12:46:29.122Z,27.26
2023-03-05T12:47:29.018Z,27.19
2023-03-05T12:48:29.024Z,27.34
2023-03-05T12:49:28.954Z,27.50
2023-03-05T12:50:28.989Z,27.64
2023-03-05T12:51:29.061Z,27.86
2023-03-05T12:52:28.865Z,27.91
2023-03-05T12:53:28.818Z,27.95
2023-03-05T12:54:28.787Z,28.18
2023-03-05T12:55:28.756Z,28.23
2023-03-05T12:56:28.729Z,28.33
2023-03-05T12:57:28.706Z,28.20
2023-03-05T12:58:28.663Z,28.49
2023-03-05T12:59:28.628Z,27.85
2023-03-05T13:00:28.653Z,27.58
2023-03-05T13:01:28.567Z,27.58
2023-03-05T13:02:28.532Z,27.78
2023-03-05T13:03:28.561Z,27.83
2023-03-05T13:04:28.464Z,27.45
2023-03-05T13:05:28.424Z,27.43
2023-03-05T13:06:28.397Z,27.73
2023-03-05T13:07:28.381Z,27.97
2023-03-05T13:08:28.329Z,27.90
2023-03-05T13:09:28.300Z,27.73
2023-03-05T13:10:28.264Z,27.88
2023-03-05T13:11:28.228Z,27.83